createdAt,value
2018-09-25T00:02:10.837Z,5.10
2018-09-25T00:04:44.503Z,5.07
2018-09-25T00:07:18.292Z,5.17
2018-09-25T00:09:52.014Z,5.20
2018-09-25T00:12:25.914Z,5.60
2018-09-25T00:14:59.627Z,5.47
2018-09-25T00:17:33.419Z,5.23
2018-09-25T00:20:07.222Z,5.20
2018-09-25T00:22:41.054Z,5.53
2018-09-25T00:25:14.911Z,5.97
2018-09-25T00:27:48.916Z,6.10
2018-09-25T00:30:22.796Z,6.13
2018-09-25T00:32:56.609Z,6.00
2018-09-25T00:35:30.374Z,5.73
2018-09-25T00:38:04.262Z,5.77
2018-09-25T00:40:37.955Z,6.70
2018-09-25T00:43:11.905Z,6.80
2018-09-25T00:45:46.121Z,6.63
2018-09-25T00:48:20.647Z,6.00
2018-09-25T00:50:55.278Z,6.63
2018-09-25T00:53:29.932Z,6.43
2018-09-25T00:56:03.625Z,6.47
2018-09-25T00:58:38.803Z,6.80
2018-09-25T01:01:12.767Z,6.43
2018-09-25T01:03:46.520Z,6.53
2018-09-25T01:06:20.746Z,6.83
2018-09-25T01:08:54.562Z,6.30
2018-09-25T01:11:28.602Z,6.43
2018-09-25T01:14:02.347Z,5.47
2018-09-25T01:16:36.197Z,6.37
2018-09-25T01:19:10.096Z,6.23
2018-09-25T01:21:43.975Z,6.27
2018-09-25T01:24:18.219Z,6.83
2018-09-25T01:26:52.169Z,6.90
2018-09-25T01:29:25.935Z,7.87
2018-09-25T01:32:00.212Z,7.50
2018-09-25T01:34:33.798Z,6.87
2018-09-25T01:37:07.656Z,7.37
2018-09-25T01:39:41.476Z,7.10
2018-09-25T01:42:15.369Z,7.23
2018-09-25T01:44:49.457Z,7.93
2018-09-25T01:47:23.239Z,7.07
2018-09-25T01:49:56.971Z,6.87
2018-09-25T01:52:30.877Z,7.37
2018-09-25T01:55:05.125Z,7.43
2018-09-25T01:57:39.049Z,7.27
2018-09-25T02:00:12.913Z,7.47
2018-09-25T02:02:47.265Z,7.37
2018-09-25T02:05:20.976Z,7.23
2018-09-25T02:07:54.755Z,7.13
2018-09-25T02:10:28.646Z,6.97
2018-09-25T02:13:03.152Z,7.50
2018-09-25T02:15:37.036Z,6.93
2018-09-25T02:18:11.230Z,7.47
2018-09-25T02:20:45.142Z,7.53
2018-09-25T02:23:18.913Z,7.27
2018-09-25T02:25:52.696Z,8.43
2018-09-25T02:28:26.548Z,7.37
2018-09-25T02:31:00.350Z,8.20
2018-09-25T02:33:34.036Z,8.47
2018-09-25T02:36:09.340Z,7.93
2018-09-25T02:38:43.275Z,8.43
2018-09-25T02:41:17.125Z,8.00
2018-09-25T02:43:50.778Z,8.10
2018-09-25T02:46:24.613Z,8.10
2018-09-25T02:48:58.424Z,8.87
2018-09-25T02:51:32.095Z,8.50
2018-09-25T02:54:05.938Z,8.03
2018-09-25T02:56:39.615Z,8.13
2018-09-25T02:59:13.339Z,7.50
2018-09-25T03:01:47.137Z,8.10
2018-09-25T03:04:20.865Z,8.33
2018-09-25T03:06:54.991Z,8.50
2018-09-25T03:09:28.895Z,8.30
2018-09-25T03:12:02.548Z,7.60
2018-09-25T03:14:36.274Z,7.47
2018-09-25T03:17:10.003Z,7.47
2018-09-25T03:19:43.879Z,8.93
2018-09-25T03:22:17.452Z,8.50
2018-09-25T03:24:51.185Z,8.37
2018-09-25T03:27:24.978Z,8.03
2018-09-25T03:29:58.819Z,7.40
2018-09-25T03:32:32.401Z,7.67
2018-09-25T03:35:06.210Z,8.07
2018-09-25T03:37:39.841Z,7.30
2018-09-25T03:40:13.534Z,7.77
2018-09-25T03:42:47.102Z,7.43
2018-09-25T03:45:21.069Z,7.70
2018-09-25T03:47:54.713Z,7.73
2018-09-25T03:50:28.602Z,7.57
2018-09-25T03:53:02.351Z,7.13
2018-09-25T03:55:36.147Z,8.00
2018-09-25T03:58:09.853Z,7.00
2018-09-25T04:00:43.698Z,8.23
2018-09-25T04:03:17.563Z,7.67
2018-09-25T04:05:51.323Z,8.10
2018-09-25T04:08:25.047Z,8.07
2018-09-25T04:10:58.857Z,8.37
2018-09-25T04:13:32.831Z,7.77
2018-09-25T04:16:06.527Z,7.87
2018-09-25T04:18:40.396Z,7.60
2018-09-25T04:21:14.160Z,8.07
2018-09-25T04:23:47.991Z,7.73
2018-09-25T04:26:21.818Z,8.17
2018-09-25T04:28:55.595Z,8.13
2018-09-25T04:31:29.294Z,8.87
2018-09-25T04:34:03.022Z,7.60
2018-09-25T04:36:36.912Z,8.80
2018-09-25T04:39:13.583Z,8.00
2018-09-25T04:41:47.793Z,8.03
2018-09-25T04:44:21.628Z,8.03
2018-09-25T04:46:55.349Z,8.13
2018-09-25T04:49:29.232Z,8.23
2018-09-25T04:52:03.612Z,8.43
2018-09-25T04:54:37.230Z,10.30
2018-09-25T04:57:11.017Z,11.87
2018-09-25T04:59:44.786Z,11.13
2018-09-25T05:02:18.807Z,10.47
2018-09-25T05:04:52.716Z,10.07
2018-09-25T05:07:27.189Z,9.67
2018-09-25T05:10:01.059Z,9.70
2018-09-25T05:12:34.859Z,10.17
2018-09-25T05:15:09.308Z,9.83
2018-09-25T05:17:42.984Z,9.63
2018-09-25T05:20:16.946Z,10.27
2018-09-25T05:22:50.754Z,13.73
2018-09-25T05:25:24.548Z,14.80
2018-09-25T05:27:58.364Z,16.80
2018-09-25T05:30:32.185Z,17.40
2018-09-25T05:33:05.958Z,19.47
2018-09-25T05:35:39.747Z,20.50
2018-09-25T05:38:14.003Z,21.27
2018-09-25T05:40:47.972Z,22.73
2018-09-25T05:43:21.725Z,22.13
2018-09-25T05:45:55.717Z,22.80
2018-09-25T05:48:29.591Z,22.03
2018-09-25T05:51:03.692Z,23.57
2018-09-25T05:53:38.008Z,22.20
2018-09-25T05:56:12.147Z,21.37
2018-09-25T05:58:46.036Z,20.93
2018-09-25T06:01:20.057Z,22.07
2018-09-25T06:03:53.841Z,22.27
2018-09-25T06:06:27.486Z,22.10
2018-09-25T06:09:02.064Z,22.17
2018-09-25T06:11:42.616Z,21.77
2018-09-25T06:14:16.429Z,21.50
2018-09-25T06:16:50.120Z,22.27
2018-09-25T06:19:24.662Z,22.03
2018-09-25T06:21:58.587Z,20.77
2018-09-25T06:24:32.369Z,20.63
2018-09-25T06:27:06.669Z,20.77
2018-09-25T06:29:40.590Z,21.43
2018-09-25T06:32:14.223Z,22.10
2018-09-25T06:34:48.237Z,20.63
2018-09-25T06:37:22.408Z,19.87
2018-09-25T06:39:56.331Z,20.13
2018-09-25T06:42:30.114Z,18.80
2018-09-25T06:45:04.044Z,18.77
2018-09-25T06:47:37.793Z,19.07
2018-09-25T06:50:11.556Z,18.27
2018-09-25T06:52:45.450Z,18.30
2018-09-25T06:55:19.410Z,17.03
2018-09-25T06:57:53.228Z,16.93
2018-09-25T07:00:27.027Z,17.07
2018-09-25T07:03:00.936Z,16.80
2018-09-25T07:05:35.493Z,17.10
2018-09-25T07:08:09.504Z,16.33
2018-09-25T07:10:43.467Z,16.33
2018-09-25T07:13:17.990Z,14.57
2018-09-25T07:15:51.778Z,15.13
2018-09-25T07:18:27.456Z,13.77
2018-09-25T07:21:01.271Z,12.70
2018-09-25T07:23:35.079Z,13.13
2018-09-25T07:26:08.771Z,13.53
2018-09-25T07:28:42.840Z,12.67
2018-09-25T07:31:16.629Z,13.37
2018-09-25T07:33:50.534Z,12.53
2018-09-25T07:36:24.474Z,11.70
2018-09-25T07:38:59.100Z,12.53
2018-09-25T07:41:33.600Z,11.80
2018-09-25T07:44:07.745Z,11.17
2018-09-25T07:46:41.562Z,11.00
2018-09-25T07:49:15.232Z,11.20
2018-09-25T07:51:49.108Z,9.83
2018-09-25T07:54:22.817Z,9.50
2018-09-25T07:56:56.498Z,9.90
2018-09-25T07:59:30.147Z,8.43
2018-09-25T08:02:03.801Z,8.33
2018-09-25T08:04:38.402Z,7.13
2018-09-25T08:07:12.508Z,5.90
2018-09-25T08:09:46.408Z,6.30
2018-09-25T08:12:20.839Z,6.43
2018-09-25T08:14:55.263Z,7.23
2018-09-25T08:17:30.065Z,7.83
2018-09-25T08:20:05.382Z,7.20
2018-09-25T08:22:39.970Z,6.53
2018-09-25T08:25:15.413Z,6.20
2018-09-25T08:27:49.276Z,5.50
2018-09-25T08:30:23.141Z,5.17
2018-09-25T08:32:56.822Z,5.43
2018-09-25T08:35:30.668Z,4.30
2018-09-25T08:38:04.502Z,4.73
2018-09-25T08:40:38.498Z,4.23
2018-09-25T08:43:12.775Z,3.63
2018-09-25T08:45:46.749Z,3.80
2018-09-25T08:48:20.733Z,4.27
2018-09-25T08:50:55.177Z,3.70
2018-09-25T08:53:29.028Z,3.80
2018-09-25T08:56:03.660Z,4.10
2018-09-25T08:58:37.481Z,4.10
2018-09-25T09:01:12.019Z,3.00
2018-09-25T09:03:45.864Z,3.40
2018-09-25T09:06:19.898Z,3.07
2018-09-25T09:08:54.400Z,3.40
2018-09-25T09:11:29.130Z,3.40
2018-09-25T09:14:03.492Z,3.60
2018-09-25T09:16:37.295Z,3.70
2018-09-25T09:19:11.081Z,3.60
2018-09-25T09:21:44.901Z,3.30
2018-09-25T09:24:18.706Z,3.20
2018-09-25T09:26:52.762Z,3.77
2018-09-25T09:29:26.513Z,3.43
2018-09-25T09:32:00.694Z,3.20
2018-09-25T09:34:34.887Z,3.50
2018-09-25T09:37:17.262Z,2.60
2018-09-25T09:39:51.183Z,2.10
2018-09-25T09:42:25.153Z,2.83
2018-09-25T09:45:00.406Z,2.40
2018-09-25T09:47:34.780Z,2.47
2018-09-25T09:50:09.570Z,2.40
2018-09-25T09:52:44.450Z,2.20
2018-09-25T09:55:18.723Z,2.30
2018-09-25T09:58:15.749Z,2.27
2018-09-25T10:00:50.856Z,2.07
2018-09-25T10:03:24.980Z,2.10
2018-09-25T10:08:39.193Z,2.17
2018-09-25T10:11:18.442Z,2.10
2018-09-25T10:14:13.850Z,2.03
2018-09-25T10:16:48.776Z,2.43
2018-09-25T10:19:22.850Z,1.97
2018-09-25T10:21:56.691Z,1.60
2018-09-25T10:24:30.400Z,2.33
2018-09-25T10:27:04.112Z,2.00
2018-09-25T10:29:37.766Z,1.60
2018-09-25T10:32:11.757Z,1.80
2018-09-25T10:34:45.767Z,1.50
2018-09-25T10:37:20.220Z,1.50
2018-09-25T10:39:54.348Z,1.70
2018-09-25T10:42:28.154Z,2.07
2018-09-25T10:45:01.952Z,1.47
2018-09-25T10:47:35.838Z,1.80
2018-09-25T10:50:09.642Z,1.93
2018-09-25T10:52:43.223Z,2.33
2018-09-25T10:55:17.125Z,1.70
2018-09-25T10:57:51.445Z,1.87
2018-09-25T11:00:25.288Z,1.50
2018-09-25T11:02:59.436Z,1.53
2018-09-25T11:05:33.727Z,2.00
2018-09-25T11:08:07.531Z,1.60
2018-09-25T11:10:41.490Z,1.30
2018-09-25T11:13:15.253Z,1.77
2018-09-25T11:15:49.226Z,1.63
2018-09-25T11:18:23.083Z,1.50
2018-09-25T11:20:57.621Z,1.63
2018-09-25T11:23:31.518Z,1.67
2018-09-25T11:26:05.441Z,1.60
2018-09-25T11:28:39.329Z,1.77
2018-09-25T11:31:13.056Z,1.43
2018-09-25T11:33:46.915Z,1.90
2018-09-25T11:36:20.880Z,1.70
2018-09-25T11:38:54.639Z,1.60
2018-09-25T11:41:29.131Z,2.20
2018-09-25T11:44:03.031Z,1.73
2018-09-25T11:46:37.596Z,1.70
2018-09-25T11:49:11.489Z,1.47
2018-09-25T11:51:47.198Z,1.37
2018-09-25T11:54:21.960Z,1.70
2018-09-25T11:56:56.307Z,1.60
2018-09-25T11:59:31.129Z,1.13
2018-09-25T12:02:05.177Z,1.60
2018-09-25T12:04:40.035Z,1.40
2018-09-25T12:07:13.709Z,1.40
2018-09-25T12:09:48.203Z,1.50
2018-09-25T12:12:22.104Z,1.50
2018-09-25T12:14:56.015Z,1.23
2018-09-25T12:17:29.712Z,1.53
2018-09-25T12:20:03.435Z,1.23
2018-09-25T12:22:37.784Z,1.60
2018-09-25T12:25:11.488Z,1.37
2018-09-25T12:27:45.321Z,1.53
2018-09-25T12:30:19.026Z,1.50
2018-09-25T12:32:53.544Z,1.43
2018-09-25T12:35:27.240Z,1.50
2018-09-25T12:38:01.077Z,1.43
2018-09-25T12:40:34.846Z,1.10
2018-09-25T12:43:08.550Z,1.70
2018-09-25T12:45:42.412Z,1.17
2018-09-25T12:48:16.193Z,1.10
2018-09-25T12:50:50.025Z,1.00
2018-09-25T12:53:23.734Z,1.27
2018-09-25T12:55:57.693Z,1.50
2018-09-25T12:58:32.088Z,1.20
2018-09-25T13:01:05.977Z,1.50
2018-09-25T13:03:46.825Z,2.03
2018-09-25T13:06:25.906Z,1.40
2018-09-25T13:08:59.589Z,1.30
2018-09-25T13:11:33.309Z,1.50
2018-09-25T13:14:07.284Z,1.43
2018-09-25T13:16:41.167Z,1.20
2018-09-25T13:19:14.976Z,1.43
2018-09-25T13:21:49.713Z,1.87
2018-09-25T13:24:23.684Z,1.27
2018-09-25T13:26:57.392Z,1.47
2018-09-25T13:29:31.652Z,1.30
2018-09-25T13:32:05.541Z,1.27
2018-09-25T13:34:39.385Z,1.43
2018-09-25T13:37:13.103Z,1.40
2018-09-25T13:39:47.357Z,1.47
2018-09-25T13:42:21.296Z,1.20
2018-09-25T13:44:55.058Z,1.70
2018-09-25T13:47:28.886Z,1.33
2018-09-25T13:50:02.853Z,1.47
2018-09-25T13:52:36.781Z,1.30
2018-09-25T13:55:10.524Z,1.50
2018-09-25T13:57:44.091Z,1.47
2018-09-25T14:00:17.967Z,1.60
2018-09-25T14:02:51.783Z,1.60
2018-09-25T14:05:25.615Z,1.50
2018-09-25T14:07:59.453Z,1.40
2018-09-25T14:10:33.372Z,1.40
2018-09-25T14:13:07.154Z,1.30
2018-09-25T14:15:41.108Z,1.30
2018-09-25T14:18:14.838Z,1.30
2018-09-25T14:20:49.344Z,1.53
2018-09-25T14:23:23.179Z,1.70
2018-09-25T14:25:56.943Z,1.27
2018-09-25T14:28:30.718Z,1.57
2018-09-25T14:31:04.543Z,1.57
2018-09-25T14:33:38.192Z,1.87
2018-09-25T14:36:12.986Z,1.40
2018-09-25T14:38:47.482Z,1.60
2018-09-25T14:41:21.286Z,1.63
2018-09-25T14:43:55.959Z,1.43
2018-09-25T14:46:29.906Z,1.43
2018-09-25T14:49:04.391Z,1.60
2018-09-25T14:51:38.079Z,1.50
2018-09-25T14:54:11.899Z,1.33
2018-09-25T14:56:45.756Z,1.23
2018-09-25T14:59:19.558Z,1.47
2018-09-25T15:01:53.361Z,1.60
2018-09-25T15:04:27.965Z,1.73
2018-09-25T15:07:01.944Z,1.43
2018-09-25T15:09:35.613Z,1.47
2018-09-25T15:12:09.374Z,1.50
2018-09-25T15:14:43.198Z,1.30
2018-09-25T15:17:16.937Z,1.37
2018-09-25T15:19:50.845Z,1.53
2018-09-25T15:22:24.625Z,1.50
2018-09-25T15:24:58.428Z,1.60
2018-09-25T15:27:32.117Z,1.50
2018-09-25T15:30:06.448Z,1.90
2018-09-25T15:32:40.897Z,1.57
2018-09-25T15:35:14.724Z,1.77
2018-09-25T15:37:48.638Z,1.43
2018-09-25T15:40:22.480Z,1.80
2018-09-25T15:42:56.294Z,2.30
2018-09-25T15:45:30.043Z,1.63
2018-09-25T15:48:03.747Z,1.33
2018-09-25T15:50:37.484Z,1.50
2018-09-25T15:53:11.444Z,1.57
2018-09-25T15:55:45.086Z,1.97
2018-09-25T15:58:18.876Z,1.40
2018-09-25T16:00:52.671Z,1.87
2018-09-25T16:03:26.360Z,1.40
2018-09-25T16:06:00.144Z,1.50
2018-09-25T16:08:33.984Z,1.70
2018-09-25T16:11:07.711Z,1.53
2018-09-25T16:13:42.261Z,1.63
2018-09-25T16:16:16.283Z,1.73
2018-09-25T16:18:50.844Z,1.83
2018-09-25T16:21:25.377Z,1.70
2018-09-25T16:23:59.804Z,1.67
2018-09-25T16:26:34.150Z,2.10
2018-09-25T16:29:07.919Z,4.80
2018-09-25T16:31:41.832Z,2.10
2018-09-25T16:34:16.499Z,1.50
2018-09-25T16:36:50.443Z,1.53
2018-09-25T16:39:24.178Z,1.50
2018-09-25T16:41:58.083Z,1.97
2018-09-25T16:44:31.945Z,1.77
2018-09-25T16:47:05.638Z,1.60
2018-09-25T16:49:39.379Z,1.53
2018-09-25T16:52:13.468Z,1.40
2018-09-25T16:54:47.139Z,1.50
2018-09-25T16:57:21.120Z,1.80
2018-09-25T16:59:54.778Z,1.70
2018-09-25T17:02:28.579Z,1.40
2018-09-25T17:05:02.379Z,1.80
2018-09-25T17:07:36.164Z,1.43
2018-09-25T17:10:10.718Z,1.60
2018-09-25T17:12:44.467Z,1.70
2018-09-25T17:15:18.556Z,1.50
2018-09-25T17:17:52.752Z,1.50
2018-09-25T17:20:26.970Z,1.80
2018-09-25T17:23:00.690Z,1.80
2018-09-25T17:25:34.541Z,1.53
2018-09-25T17:28:08.366Z,1.90
2018-09-25T17:30:42.399Z,1.90
2018-09-25T17:33:16.154Z,1.50
2018-09-25T17:35:49.903Z,1.80
2018-09-25T17:38:23.817Z,1.97
2018-09-25T17:40:58.883Z,1.90
2018-09-25T17:43:32.649Z,1.90
2018-09-25T17:46:07.702Z,1.97
2018-09-25T17:48:42.106Z,1.83
2018-09-25T17:51:16.260Z,2.20
2018-09-25T17:53:50.215Z,2.00
2018-09-25T17:56:23.920Z,2.20
2018-09-25T17:58:57.752Z,2.30
2018-09-25T18:01:31.452Z,2.37
2018-09-25T18:04:05.264Z,2.40
2018-09-25T18:06:39.119Z,2.53
2018-09-25T18:09:14.388Z,2.57
2018-09-25T18:11:49.232Z,3.20
2018-09-25T18:14:23.035Z,3.30
2018-09-25T18:16:56.849Z,2.60
2018-09-25T18:19:30.635Z,2.63
2018-09-25T18:22:04.872Z,2.50
2018-09-25T18:24:39.422Z,3.37
2018-09-25T18:27:13.308Z,2.80
2018-09-25T18:29:47.232Z,3.07
2018-09-25T18:32:21.376Z,2.60
2018-09-25T18:34:55.355Z,3.27
2018-09-25T18:37:29.239Z,2.73
2018-09-25T18:40:02.959Z,3.00
2018-09-25T18:42:37.229Z,2.63
2018-09-25T18:45:11.260Z,2.70
2018-09-25T18:47:45.088Z,3.03
2018-09-25T18:50:18.775Z,3.40
2018-09-25T18:52:52.820Z,2.97
2018-09-25T18:55:26.721Z,7.87
2018-09-25T18:58:00.653Z,3.13
2018-09-25T19:00:35.284Z,3.07
2018-09-25T19:03:10.081Z,3.27
2018-09-25T19:05:43.754Z,3.13
2018-09-25T19:08:18.488Z,3.07
2018-09-25T19:10:52.284Z,3.27
2018-09-25T19:13:26.099Z,2.90
2018-09-25T19:15:59.871Z,3.57
2018-09-25T19:18:33.737Z,7.40
2018-09-25T19:21:07.731Z,4.50
2018-09-25T19:23:41.611Z,4.30
2018-09-25T19:26:15.496Z,4.53
2018-09-25T19:28:49.334Z,4.13
2018-09-25T19:31:23.158Z,4.17
2018-09-25T19:33:56.843Z,4.23
2018-09-25T19:36:31.400Z,4.87
2018-09-25T19:39:05.061Z,8.53
2018-09-25T19:41:39.436Z,5.20
2018-09-25T19:44:13.592Z,5.23
2018-09-25T19:46:47.448Z,4.60
2018-09-25T19:49:21.341Z,5.90
2018-09-25T19:51:55.721Z,6.00
2018-09-25T19:54:29.530Z,5.83
2018-09-25T19:57:04.277Z,5.90
2018-09-25T19:59:38.002Z,6.53
2018-09-25T20:02:11.890Z,5.90
2018-09-25T20:04:46.577Z,6.30
2018-09-25T20:07:20.890Z,6.07
2018-09-25T20:09:54.825Z,6.20
2018-09-25T20:12:29.553Z,7.23
2018-09-25T20:15:03.555Z,6.63
2018-09-25T20:17:37.383Z,7.10
2018-09-25T20:20:11.180Z,8.77
2018-09-25T20:22:46.026Z,6.23
2018-09-25T20:25:20.373Z,7.53
2018-09-25T20:27:54.398Z,7.00
2018-09-25T20:30:28.600Z,7.80
2018-09-25T20:33:02.593Z,6.97
2018-09-25T20:35:36.417Z,7.33
2018-09-25T20:38:10.291Z,8.37
2018-09-25T20:40:44.066Z,8.17
2018-09-25T20:43:18.506Z,7.93
2018-09-25T20:45:52.194Z,7.03
2018-09-25T20:48:26.033Z,7.40
2018-09-25T20:50:59.885Z,7.43
2018-09-25T20:53:34.451Z,7.33
2018-09-25T20:56:08.229Z,7.60
2018-09-25T20:58:42.043Z,7.50
2018-09-25T21:01:16.515Z,7.63
2018-09-25T21:03:50.123Z,8.07
2018-09-25T21:06:25.250Z,8.43
2018-09-25T21:09:00.593Z,8.73
2018-09-25T21:11:34.701Z,8.70
2018-09-25T21:14:08.640Z,8.77
2018-09-25T21:16:42.958Z,9.60
2018-09-25T21:19:17.911Z,8.90
2018-09-25T21:21:52.321Z,9.37
2018-09-25T21:24:26.384Z,9.23
2018-09-25T21:27:00.234Z,9.43
2018-09-25T21:29:34.081Z,9.63
2018-09-25T21:32:08.129Z,9.30
2018-09-25T21:34:41.955Z,9.80
2018-09-25T21:37:16.591Z,10.03
2018-09-25T21:39:50.407Z,10.23
2018-09-25T21:42:24.848Z,10.03
2018-09-25T21:44:58.548Z,10.13
2018-09-25T21:47:32.739Z,9.53
2018-09-25T21:50:06.388Z,10.63
2018-09-25T21:52:40.054Z,9.57
2018-09-25T21:55:14.054Z,10.00
2018-09-25T21:57:48.705Z,9.63
2018-09-25T22:00:22.308Z,10.77
2018-09-25T22:02:56.030Z,9.97
2018-09-25T22:05:29.770Z,10.33
2018-09-25T22:08:03.613Z,9.80
2018-09-25T22:10:37.562Z,10.77
2018-09-25T22:13:12.138Z,10.93
2018-09-25T22:15:45.867Z,10.73
2018-09-25T22:18:20.416Z,10.97
2018-09-25T22:20:54.124Z,11.83
2018-09-25T22:23:27.973Z,11.57
2018-09-25T22:26:01.974Z,11.10
2018-09-25T22:28:36.047Z,11.00
2018-09-25T22:31:09.792Z,12.00
2018-09-25T22:33:43.745Z,10.70
2018-09-25T22:36:17.734Z,11.03
2018-09-25T22:38:52.226Z,11.47
2018-09-25T22:41:26.060Z,11.80
2018-09-25T22:43:59.752Z,11.87
2018-09-25T22:46:33.546Z,12.00
2018-09-25T22:49:07.413Z,12.37
2018-09-25T22:51:41.815Z,13.07
2018-09-25T22:54:15.868Z,12.23
2018-09-25T22:56:49.581Z,11.63
2018-09-25T22:59:23.308Z,12.23
2018-09-25T23:01:57.578Z,12.37
2018-09-25T23:04:31.510Z,12.60
2018-09-25T23:07:05.288Z,14.07
2018-09-25T23:09:39.019Z,13.77
2018-09-25T23:12:13.182Z,14.27
2018-09-25T23:14:47.276Z,14.13
2018-09-25T23:17:21.339Z,14.87
2018-09-25T23:19:55.198Z,14.20
2018-09-25T23:22:28.991Z,14.20
2018-09-25T23:25:02.671Z,14.70
2018-09-25T23:27:36.960Z,14.17
2018-09-25T23:30:10.785Z,13.80
2018-09-25T23:32:44.558Z,14.93
2018-09-25T23:35:18.351Z,15.30
2018-09-25T23:37:52.248Z,16.17
2018-09-25T23:41:26.017Z,15.83
2018-09-25T23:44:01.810Z,14.93
2018-09-25T23:46:34.443Z,14.57
2018-09-25T23:49:07.964Z,15.00
2018-09-25T23:51:41.463Z,16.53
2018-09-25T23:55:13.668Z,15.80
2018-09-25T23:57:47.826Z,16.43
